CFX2 weather

Calgary / Okotoks Air Park
Calgary, Alberta, Canada

Public forecast

Using degrees Celsius for public forecast. Weather courtesy of forecast.io.

Closest aviation weather report (METAR) to Calgary / Okotoks Air Park

Closest report is Calgary International Airport, 23.0 nm (42.5 km) N. Retrieved 2019/10/15 10:00 UTC (20 minutes ago):

CYYC 151000Z 16009KT 1 1/2SM BR OVC005 M01/M02 A3014 RMK ST8 CIG VRB 4-6 SLP252

Closest aviation forecast (TAF) to Calgary / Okotoks Air Park

Closest forecast is Calgary International Airport, 23.0 nm (42.5 km) N. Retrieved 2019/10/15 09:39 UTC (41 minutes ago):

TAF CYYC 150838Z 1509/1606 17005KT P6SM FEW020 FEW120 SCT220 TEMPO 1509/1512 4SM BR BKN020 BKN120 BKN220 FM151200 17008KT P6SM SCT004 BKN010 TEMPO 1512/1517 2SM BR OVC004 FM151700 17012KT P6SM SCT008 SCT160 FM152000 17012KT P6SM SCT100 BKN160 FM160300 27012KT P6SM SCT140 BKN220 RMK NXT FCST BY 151200Z